Albolote, Spain
Current Conditions -  °F | °C
As of 1:30 PM on Monday 20 Oct 2014 (Local Time) from LEGR Reporting Station
Clear Clear  
Wind Chill: 82°   Ceiling: Unl
Heat Index: 82°   Visibility: 6mi
Dew Point: 46°   Wind: 3mph
Humidity: 28%   Direction: 120°ESE
Pressure: 30.18"   Gusts: NA
Location:  37.23°N, 3.66°W
Report Text: LEGR 201130Z 12003KT 050V150 CAVOK 28/08 Q1022
Loading
Personal Weather Stations






























Interactive Weather Map New forecast layout! Learn more

10-Day Weather Forecast

Advertisements
Track Severe Weather on mobile